sensor_id;sensor_type;location;lat;lon;timestamp;temperature;humidity
43842;DHT22;29495;49.970;20.842;2023-06-22T00:01:52;20.60;99.90
43842;DHT22;29495;49.970;20.842;2023-06-22T00:04:18;20.40;99.90
43842;DHT22;29495;49.970;20.842;2023-06-22T00:06:44;20.50;99.90
43842;DHT22;29495;49.970;20.842;2023-06-22T00:09:10;20.50;99.90
43842;DHT22;29495;49.970;20.842;2023-06-22T00:11:36;20.60;99.90
43842;DHT22;29495;49.970;20.842;2023-06-22T00:14:02;20.40;99.90
43842;DHT22;29495;49.970;20.842;2023-06-22T00:16:28;20.40;99.90
43842;DHT22;29495;49.970;20.842;2023-06-22T00:18:54;20.40;99.90
43842;DHT22;29495;49.970;20.842;2023-06-22T00:21:20;20.30;99.90
43842;DHT22;29495;49.970;20.842;2023-06-22T00:23:46;20.40;99.90
43842;DHT22;29495;49.970;20.842;2023-06-22T00:26:13;20.20;99.90
43842;DHT22;29495;49.970;20.842;2023-06-22T00:28:39;20.30;99.90
43842;DHT22;29495;49.970;20.842;2023-06-22T00:31:04;20.30;99.90
43842;DHT22;29495;49.970;20.842;2023-06-22T00:33:30;20.40;99.90
43842;DHT22;29495;49.970;20.842;2023-06-22T00:35:57;20.40;99.90
43842;DHT22;29495;49.970;20.842;2023-06-22T00:38:23;20.40;99.90
43842;DHT22;29495;49.970;20.842;2023-06-22T00:40:49;20.50;99.90
43842;DHT22;29495;49.970;20.842;2023-06-22T00:43:14;20.50;99.90
43842;DHT22;29495;49.970;20.842;2023-06-22T00:45:40;20.40;99.90
43842;DHT22;29495;49.970;20.842;2023-06-22T00:48:06;20.50;99.90
43842;DHT22;29495;49.970;20.842;2023-06-22T00:50:33;20.50;99.90
43842;DHT22;29495;49.970;20.842;2023-06-22T00:53:09;20.60;99.90
43842;DHT22;29495;49.970;20.842;2023-06-22T00:55:35;20.50;99.90
43842;DHT22;29495;49.970;20.842;2023-06-22T00:58:03;20.50;99.90
43842;DHT22;29495;49.970;20.842;2023-06-22T01:00:31;20.40;99.90
43842;DHT22;29495;49.970;20.842;2023-06-22T01:02:59;20.50;99.90
43842;DHT22;29495;49.970;20.842;2023-06-22T01:05:25;20.50;99.90
43842;DHT22;29495;49.970;20.842;2023-06-22T01:12:52;20.30;99.90
43842;DHT22;29495;49.970;20.842;2023-06-22T01:15:27;20.30;99.90
43842;DHT22;29495;49.970;20.842;2023-06-22T01:17:54;20.40;99.90
43842;DHT22;29495;49.970;20.842;2023-06-22T01:20:22;20.40;99.90
43842;DHT22;29495;49.970;20.842;2023-06-22T01:28:47;20.40;99.90
43842;DHT22;29495;49.970;20.842;2023-06-22T01:31:18;20.40;99.90
43842;DHT22;29495;49.970;20.842;2023-06-22T01:33:46;20.30;99.90
43842;DHT22;29495;49.970;20.842;2023-06-22T01:36:13;20.40;99.90
43842;DHT22;29495;49.970;20.842;2023-06-22T01:38:39;20.40;99.90
43842;DHT22;29495;49.970;20.842;2023-06-22T01:41:06;20.50;99.90
43842;DHT22;29495;49.970;20.842;2023-06-22T01:43:31;20.50;99.90
43842;DHT22;29495;49.970;20.842;2023-06-22T01:45:59;20.50;99.90
43842;DHT22;29495;49.970;20.842;2023-06-22T01:48:25;20.40;99.90
43842;DHT22;29495;49.970;20.842;2023-06-22T01:50:52;20.40;99.90
43842;DHT22;29495;49.970;20.842;2023-06-22T01:53:20;20.30;99.90
43842;DHT22;29495;49.970;20.842;2023-06-22T01:55:46;20.30;99.90
43842;DHT22;29495;49.970;20.842;2023-06-22T01:58:12;20.20;99.90
43842;DHT22;29495;49.970;20.842;2023-06-22T02:00:38;20.20;99.90
43842;DHT22;29495;49.970;20.842;2023-06-22T02:03:10;20.10;99.90
43842;DHT22;29495;49.970;20.842;2023-06-22T02:05:38;20.00;99.90
43842;DHT22;29495;49.970;20.842;2023-06-22T02:08:11;20.00;99.90
43842;DHT22;29495;49.970;20.842;2023-06-22T02:10:41;20.10;99.90
43842;DHT22;29495;49.970;20.842;2023-06-22T02:13:08;20.10;99.90
43842;DHT22;29495;49.970;20.842;2023-06-22T02:15:34;20.00;99.90
43842;DHT22;29495;49.970;20.842;2023-06-22T02:18:00;20.00;99.90
43842;DHT22;29495;49.970;20.842;2023-06-22T02:20:26;20.00;99.90
43842;DHT22;29495;49.970;20.842;2023-06-22T02:22:52;20.00;99.90
43842;DHT22;29495;49.970;20.842;2023-06-22T02:25:18;19.90;99.90
43842;DHT22;29495;49.970;20.842;2023-06-22T02:27:45;19.90;99.90
43842;DHT22;29495;49.970;20.842;2023-06-22T02:30:11;20.00;99.90
43842;DHT22;29495;49.970;20.842;2023-06-22T02:32:38;19.90;99.90
43842;DHT22;29495;49.970;20.842;2023-06-22T02:35:07;19.90;99.90
43842;DHT22;29495;49.970;20.842;2023-06-22T02:37:35;19.90;99.90
43842;DHT22;29495;49.970;20.842;2023-06-22T02:40:01;20.00;99.90
43842;DHT22;29495;49.970;20.842;2023-06-22T02:48:06;20.10;99.90
43842;DHT22;29495;49.970;20.842;2023-06-22T02:50:32;20.10;99.90
43842;DHT22;29495;49.970;20.842;2023-06-22T02:52:58;19.90;99.90
43842;DHT22;29495;49.970;20.842;2023-06-22T02:55:24;19.80;99.90
43842;DHT22;29495;49.970;20.842;2023-06-22T02:57:54;20.00;99.90
43842;DHT22;29495;49.970;20.842;2023-06-22T03:00:20;20.10;99.90
43842;DHT22;29495;49.970;20.842;2023-06-22T03:02:48;20.20;99.90
43842;DHT22;29495;49.970;20.842;2023-06-22T03:05:14;20.20;99.90
43842;DHT22;29495;49.970;20.842;2023-06-22T03:07:40;20.30;99.90
43842;DHT22;29495;49.970;20.842;2023-06-22T03:10:08;20.10;99.90
43842;DHT22;29495;49.970;20.842;2023-06-22T03:12:35;20.00;99.90
43842;DHT22;29495;49.970;20.842;2023-06-22T03:15:01;20.00;99.90
43842;DHT22;29495;49.970;20.842;2023-06-22T03:17:26;19.90;99.90
43842;DHT22;29495;49.970;20.842;2023-06-22T03:19:52;19.80;99.90
43842;DHT22;29495;49.970;20.842;2023-06-22T03:22:18;19.80;99.90
43842;DHT22;29495;49.970;20.842;2023-06-22T03:24:44;19.80;99.90
43842;DHT22;29495;49.970;20.842;2023-06-22T03:27:09;19.70;99.90
43842;DHT22;29495;49.970;20.842;2023-06-22T03:29:35;19.80;99.90
43842;DHT22;29495;49.970;20.842;2023-06-22T03:32:01;19.90;99.90
43842;DHT22;29495;49.970;20.842;2023-06-22T03:34:27;20.00;99.90
43842;DHT22;29495;49.970;20.842;2023-06-22T03:36:52;20.20;99.90
43842;DHT22;29495;49.970;20.842;2023-06-22T03:39:18;20.30;99.90
43842;DHT22;29495;49.970;20.842;2023-06-22T03:41:46;20.40;99.90
43842;DHT22;29495;49.970;20.842;2023-06-22T03:44:12;20.50;99.90
43842;DHT22;29495;49.970;20.842;2023-06-22T03:46:38;20.50;99.90
43842;DHT22;29495;49.970;20.842;2023-06-22T03:49:03;20.50;99.90
43842;DHT22;29495;49.970;20.842;2023-06-22T03:51:30;20.60;99.90
43842;DHT22;29495;49.970;20.842;2023-06-22T03:53:56;20.50;99.90
43842;DHT22;29495;49.970;20.842;2023-06-22T03:56:22;20.50;99.90
43842;DHT22;29495;49.970;20.842;2023-06-22T03:58:48;20.60;99.90
43842;DHT22;29495;49.970;20.842;2023-06-22T04:01:13;20.80;99.90
43842;DHT22;29495;49.970;20.842;2023-06-22T04:03:40;20.80;99.90
43842;DHT22;29495;49.970;20.842;2023-06-22T04:06:06;20.80;99.90
43842;DHT22;29495;49.970;20.842;2023-06-22T04:08:32;20.80;99.90
43842;DHT22;29495;49.970;20.842;2023-06-22T04:10:58;20.90;99.90
43842;DHT22;29495;49.970;20.842;2023-06-22T04:19:01;21.10;99.90
43842;DHT22;29495;49.970;20.842;2023-06-22T04:21:27;21.10;99.90
43842;DHT22;29495;49.970;20.842;2023-06-22T04:23:53;21.30;99.90
43842;DHT22;29495;49.970;20.842;2023-06-22T04:26:19;21.40;99.90
43842;DHT22;29495;49.970;20.842;2023-06-22T04:28:46;21.60;99.90
43842;DHT22;29495;49.970;20.842;2023-06-22T04:31:17;21.90;99.90
43842;DHT22;29495;49.970;20.842;2023-06-22T04:33:44;21.80;99.90
43842;DHT22;29495;49.970;20.842;2023-06-22T04:36:10;21.90;99.90
43842;DHT22;29495;49.970;20.842;2023-06-22T04:38:39;22.00;99.90
43842;DHT22;29495;49.970;20.842;2023-06-22T04:41:04;21.90;99.90
43842;DHT22;29495;49.970;20.842;2023-06-22T04:43:30;21.90;99.90
43842;DHT22;29495;49.970;20.842;2023-06-22T04:45:56;22.00;99.90
43842;DHT22;29495;49.970;20.842;2023-06-22T04:48:29;22.10;99.90
43842;DHT22;29495;49.970;20.842;2023-06-22T04:51:01;22.10;99.90
43842;DHT22;29495;49.970;20.842;2023-06-22T04:53:29;22.20;99.90
43842;DHT22;29495;49.970;20.842;2023-06-22T04:55:55;22.20;99.90
43842;DHT22;29495;49.970;20.842;2023-06-22T04:58:21;22.10;99.90
43842;DHT22;29495;49.970;20.842;2023-06-22T05:00:47;22.10;99.90
43842;DHT22;29495;49.970;20.842;2023-06-22T05:03:13;22.20;99.90
43842;DHT22;29495;49.970;20.842;2023-06-22T05:05:38;22.10;99.90
43842;DHT22;29495;49.970;20.842;2023-06-22T05:08:04;22.30;99.90
43842;DHT22;29495;49.970;20.842;2023-06-22T05:10:32;22.50;99.90
43842;DHT22;29495;49.970;20.842;2023-06-22T05:12:58;22.90;99.90
43842;DHT22;29495;49.970;20.842;2023-06-22T05:15:24;23.40;99.90
43842;DHT22;29495;49.970;20.842;2023-06-22T05:17:53;23.80;99.90
43842;DHT22;29495;49.970;20.842;2023-06-22T05:20:19;23.90;99.90
43842;DHT22;29495;49.970;20.842;2023-06-22T05:22:45;24.70;99.90
43842;DHT22;29495;49.970;20.842;2023-06-22T05:25:11;25.40;99.90
43842;DHT22;29495;49.970;20.842;2023-06-22T05:27:37;26.40;99.90
43842;DHT22;29495;49.970;20.842;2023-06-22T05:30:08;27.50;99.90
43842;DHT22;29495;49.970;20.842;2023-06-22T05:32:35;28.20;99.90
43842;DHT22;29495;49.970;20.842;2023-06-22T05:35:01;30.00;99.90
43842;DHT22;29495;49.970;20.842;2023-06-22T05:37:28;30.70;99.90
43842;DHT22;29495;49.970;20.842;2023-06-22T05:39:54;31.20;92.10
43842;DHT22;29495;49.970;20.842;2023-06-22T05:42:21;31.30;90.00
43842;DHT22;29495;49.970;20.842;2023-06-22T05:44:47;31.80;91.30
43842;DHT22;29495;49.970;20.842;2023-06-22T05:47:13;32.30;90.10
43842;DHT22;29495;49.970;20.842;2023-06-22T05:49:38;32.90;75.10
43842;DHT22;29495;49.970;20.842;2023-06-22T05:52:04;33.00;71.40
43842;DHT22;29495;49.970;20.842;2023-06-22T05:54:30;32.70;68.70
43842;DHT22;29495;49.970;20.842;2023-06-22T05:56:56;32.40;68.20
43842;DHT22;29495;49.970;20.842;2023-06-22T05:59:22;32.00;68.90
43842;DHT22;29495;49.970;20.842;2023-06-22T06:01:48;32.20;69.10
43842;DHT22;29495;49.970;20.842;2023-06-22T06:10:09;33.00;65.70
43842;DHT22;29495;49.970;20.842;2023-06-22T06:12:35;33.70;64.10
43842;DHT22;29495;49.970;20.842;2023-06-22T06:15:01;34.10;61.50
43842;DHT22;29495;49.970;20.842;2023-06-22T06:17:27;34.30;59.40
43842;DHT22;29495;49.970;20.842;2023-06-22T06:19:53;33.60;60.00
43842;DHT22;29495;49.970;20.842;2023-06-22T06:22:19;34.00;60.10
43842;DHT22;29495;49.970;20.842;2023-06-22T06:24:47;33.20;59.80
43842;DHT22;29495;49.970;20.842;2023-06-22T06:27:13;34.10;60.10
43842;DHT22;29495;49.970;20.842;2023-06-22T06:29:39;34.20;59.80
43842;DHT22;29495;49.970;20.842;2023-06-22T06:32:05;34.20;59.10
43842;DHT22;29495;49.970;20.842;2023-06-22T06:34:31;34.50;59.70
43842;DHT22;29495;49.970;20.842;2023-06-22T06:36:57;33.90;57.90
43842;DHT22;29495;49.970;20.842;2023-06-22T06:39:23;34.00;59.50
43842;DHT22;29495;49.970;20.842;2023-06-22T06:41:49;34.50;59.20
43842;DHT22;29495;49.970;20.842;2023-06-22T06:44:15;33.80;58.40
43842;DHT22;29495;49.970;20.842;2023-06-22T06:46:41;34.30;59.90
43842;DHT22;29495;49.970;20.842;2023-06-22T06:49:07;34.60;57.90
43842;DHT22;29495;49.970;20.842;2023-06-22T06:51:33;35.10;58.80
43842;DHT22;29495;49.970;20.842;2023-06-22T06:53:59;34.80;57.30
43842;DHT22;29495;49.970;20.842;2023-06-22T06:56:25;34.60;56.90
43842;DHT22;29495;49.970;20.842;2023-06-22T06:58:50;34.40;58.00
43842;DHT22;29495;49.970;20.842;2023-06-22T07:01:16;35.00;58.90
43842;DHT22;29495;49.970;20.842;2023-06-22T07:03:42;34.40;58.20
43842;DHT22;29495;49.970;20.842;2023-06-22T07:06:09;34.70;57.80
43842;DHT22;29495;49.970;20.842;2023-06-22T07:08:34;34.90;57.60
43842;DHT22;29495;49.970;20.842;2023-06-22T07:11:05;35.50;57.00
43842;DHT22;29495;49.970;20.842;2023-06-22T07:13:31;35.40;57.50
43842;DHT22;29495;49.970;20.842;2023-06-22T07:15:57;34.90;57.30
43842;DHT22;29495;49.970;20.842;2023-06-22T07:18:23;34.80;57.80
43842;DHT22;29495;49.970;20.842;2023-06-22T07:20:49;34.70;58.00
43842;DHT22;29495;49.970;20.842;2023-06-22T07:23:14;34.90;58.30
43842;DHT22;29495;49.970;20.842;2023-06-22T07:25:40;34.90;58.00
43842;DHT22;29495;49.970;20.842;2023-06-22T07:28:07;35.20;58.10
43842;DHT22;29495;49.970;20.842;2023-06-22T07:30:33;35.00;58.40
43842;DHT22;29495;49.970;20.842;2023-06-22T07:32:59;34.30;59.50
43842;DHT22;29495;49.970;20.842;2023-06-22T07:35:29;34.60;59.90
43842;DHT22;29495;49.970;20.842;2023-06-22T07:37:55;34.10;60.00
43842;DHT22;29495;49.970;20.842;2023-06-22T07:40:21;34.40;61.50
43842;DHT22;29495;49.970;20.842;2023-06-22T07:42:46;33.80;62.90
43842;DHT22;29495;49.970;20.842;2023-06-22T07:45:19;33.30;62.90
43842;DHT22;29495;49.970;20.842;2023-06-22T07:47:45;33.00;64.80
43842;DHT22;29495;49.970;20.842;2023-06-22T07:50:10;33.40;65.10
43842;DHT22;29495;49.970;20.842;2023-06-22T07:52:36;32.50;67.20
43842;DHT22;29495;49.970;20.842;2023-06-22T07:55:02;31.80;75.60
43842;DHT22;29495;49.970;20.842;2023-06-22T07:57:28;32.00;83.90
43842;DHT22;29495;49.970;20.842;2023-06-22T08:00:02;32.10;91.70
43842;DHT22;29495;49.970;20.842;2023-06-22T08:02:38;31.80;91.80
43842;DHT22;29495;49.970;20.842;2023-06-22T08:05:04;31.70;94.50
43842;DHT22;29495;49.970;20.842;2023-06-22T08:07:32;31.70;89.10
43842;DHT22;29495;49.970;20.842;2023-06-22T08:09:58;31.20;92.50
43842;DHT22;29495;49.970;20.842;2023-06-22T08:12:24;31.70;92.10
43842;DHT22;29495;49.970;20.842;2023-06-22T08:14:50;31.50;93.70
43842;DHT22;29495;49.970;20.842;2023-06-22T08:22:54;29.80;99.90
43842;DHT22;29495;49.970;20.842;2023-06-22T08:25:20;30.30;99.90
43842;DHT22;29495;49.970;20.842;2023-06-22T08:27:47;31.00;97.50
43842;DHT22;29495;49.970;20.842;2023-06-22T08:30:16;31.30;96.80
43842;DHT22;29495;49.970;20.842;2023-06-22T08:32:44;31.10;97.90
43842;DHT22;29495;49.970;20.842;2023-06-22T08:35:09;30.90;99.10
43842;DHT22;29495;49.970;20.842;2023-06-22T08:37:35;30.50;99.30
43842;DHT22;29495;49.970;20.842;2023-06-22T08:40:03;30.60;99.90
43842;DHT22;29495;49.970;20.842;2023-06-22T08:42:33;30.50;99.90
43842;DHT22;29495;49.970;20.842;2023-06-22T08:44:59;30.50;99.90
43842;DHT22;29495;49.970;20.842;2023-06-22T08:47:26;30.80;99.90
43842;DHT22;29495;49.970;20.842;2023-06-22T08:49:52;30.70;99.90
43842;DHT22;29495;49.970;20.842;2023-06-22T08:52:19;30.70;99.90
43842;DHT22;29495;49.970;20.842;2023-06-22T08:54:45;30.50;99.90
43842;DHT22;29495;49.970;20.842;2023-06-22T08:57:11;31.10;99.90
43842;DHT22;29495;49.970;20.842;2023-06-22T08:59:37;31.10;98.90
43842;DHT22;29495;49.970;20.842;2023-06-22T09:02:03;31.20;98.10
43842;DHT22;29495;49.970;20.842;2023-06-22T09:04:29;30.80;99.70
43842;DHT22;29495;49.970;20.842;2023-06-22T09:06:54;31.20;99.90
43842;DHT22;29495;49.970;20.842;2023-06-22T09:09:21;30.80;99.70
43842;DHT22;29495;49.970;20.842;2023-06-22T09:11:47;30.10;99.90
43842;DHT22;29495;49.970;20.842;2023-06-22T09:14:12;30.70;99.90
43842;DHT22;29495;49.970;20.842;2023-06-22T09:16:38;30.80;99.90
43842;DHT22;29495;49.970;20.842;2023-06-22T09:19:04;30.80;99.90
43842;DHT22;29495;49.970;20.842;2023-06-22T09:21:30;31.20;99.30
43842;DHT22;29495;49.970;20.842;2023-06-22T09:23:56;31.70;96.00
43842;DHT22;29495;49.970;20.842;2023-06-22T09:26:22;31.90;93.80
43842;DHT22;29495;49.970;20.842;2023-06-22T09:28:49;31.40;97.70
43842;DHT22;29495;49.970;20.842;2023-06-22T09:31:15;31.30;99.40
43842;DHT22;29495;49.970;20.842;2023-06-22T09:33:42;31.00;98.20
43842;DHT22;29495;49.970;20.842;2023-06-22T09:36:08;31.00;97.70
43842;DHT22;29495;49.970;20.842;2023-06-22T09:38:37;31.20;98.80
43842;DHT22;29495;49.970;20.842;2023-06-22T09:41:03;31.50;95.90
43842;DHT22;29495;49.970;20.842;2023-06-22T09:43:29;31.30;95.00
43842;DHT22;29495;49.970;20.842;2023-06-22T09:45:56;31.10;98.30
43842;DHT22;29495;49.970;20.842;2023-06-22T09:48:22;30.80;99.90
43842;DHT22;29495;49.970;20.842;2023-06-22T09:50:47;30.50;99.90
43842;DHT22;29495;49.970;20.842;2023-06-22T09:53:13;30.70;99.90
43842;DHT22;29495;49.970;20.842;2023-06-22T09:55:39;31.00;99.90
43842;DHT22;29495;49.970;20.842;2023-06-22T09:58:05;31.60;97.00
43842;DHT22;29495;49.970;20.842;2023-06-22T10:00:30;31.60;99.90
43842;DHT22;29495;49.970;20.842;2023-06-22T10:02:56;31.40;96.10
43842;DHT22;29495;49.970;20.842;2023-06-22T10:05:22;30.80;99.40
43842;DHT22;29495;49.970;20.842;2023-06-22T10:07:48;30.80;99.90
43842;DHT22;29495;49.970;20.842;2023-06-22T10:10:14;30.60;99.90
43842;DHT22;29495;49.970;20.842;2023-06-22T10:12:41;30.40;99.90
43842;DHT22;29495;49.970;20.842;2023-06-22T10:15:07;30.50;99.90
43842;DHT22;29495;49.970;20.842;2023-06-22T10:17:33;30.50;99.90
43842;DHT22;29495;49.970;20.842;2023-06-22T10:20:00;30.30;99.90
43842;DHT22;29495;49.970;20.842;2023-06-22T10:22:26;30.20;99.90
43842;DHT22;29495;49.970;20.842;2023-06-22T10:24:52;30.30;99.90
43842;DHT22;29495;49.970;20.842;2023-06-22T10:27:18;30.00;99.90
43842;DHT22;29495;49.970;20.842;2023-06-22T10:29:44;29.80;99.90
43842;DHT22;29495;49.970;20.842;2023-06-22T10:32:10;30.20;99.90
43842;DHT22;29495;49.970;20.842;2023-06-22T10:34:35;30.80;99.90
43842;DHT22;29495;49.970;20.842;2023-06-22T10:37:01;31.00;99.80
43842;DHT22;29495;49.970;20.842;2023-06-22T10:39:27;31.40;99.90
43842;DHT22;29495;49.970;20.842;2023-06-22T10:41:52;31.40;99.70
43842;DHT22;29495;49.970;20.842;2023-06-22T10:44:18;31.20;99.60
43842;DHT22;29495;49.970;20.842;2023-06-22T10:46:44;31.20;98.70
43842;DHT22;29495;49.970;20.842;2023-06-22T10:49:10;31.60;99.60
43842;DHT22;29495;49.970;20.842;2023-06-22T10:51:35;31.50;95.20
43842;DHT22;29495;49.970;20.842;2023-06-22T10:54:01;31.90;96.80
43842;DHT22;29495;49.970;20.842;2023-06-22T10:56:27;31.80;97.50
43842;DHT22;29495;49.970;20.842;2023-06-22T10:58:52;31.70;92.10
43842;DHT22;29495;49.970;20.842;2023-06-22T11:01:19;31.80;93.20
43842;DHT22;29495;49.970;20.842;2023-06-22T11:03:45;31.80;95.90
43842;DHT22;29495;49.970;20.842;2023-06-22T11:06:11;32.00;97.10
43842;DHT22;29495;49.970;20.842;2023-06-22T11:08:37;31.80;91.90
43842;DHT22;29495;49.970;20.842;2023-06-22T11:11:03;32.00;94.90
43842;DHT22;29495;49.970;20.842;2023-06-22T11:13:28;31.90;92.50
43842;DHT22;29495;49.970;20.842;2023-06-22T11:15:54;31.60;90.90
43842;DHT22;29495;49.970;20.842;2023-06-22T11:18:20;31.70;94.70
43842;DHT22;29495;49.970;20.842;2023-06-22T11:20:46;31.50;90.80
43842;DHT22;29495;49.970;20.842;2023-06-22T11:23:13;32.00;93.00
43842;DHT22;29495;49.970;20.842;2023-06-22T11:25:38;32.30;94.10
43842;DHT22;29495;49.970;20.842;2023-06-22T11:28:04;32.10;84.80
43842;DHT22;29495;49.970;20.842;2023-06-22T11:30:30;32.40;76.80
43842;DHT22;29495;49.970;20.842;2023-06-22T11:32:57;32.50;72.40
43842;DHT22;29495;49.970;20.842;2023-06-22T11:35:23;32.50;69.80
43842;DHT22;29495;49.970;20.842;2023-06-22T11:37:49;32.80;72.00
43842;DHT22;29495;49.970;20.842;2023-06-22T11:40:15;33.00;72.40
43842;DHT22;29495;49.970;20.842;2023-06-22T11:42:41;33.10;69.10
43842;DHT22;29495;49.970;20.842;2023-06-22T11:45:06;32.90;71.00
43842;DHT22;29495;49.970;20.842;2023-06-22T11:47:32;32.80;69.70
43842;DHT22;29495;49.970;20.842;2023-06-22T11:49:58;32.90;68.80
43842;DHT22;29495;49.970;20.842;2023-06-22T11:52:24;33.00;72.00
43842;DHT22;29495;49.970;20.842;2023-06-22T11:54:49;33.00;69.10
43842;DHT22;29495;49.970;20.842;2023-06-22T11:57:15;33.40;71.20
43842;DHT22;29495;49.970;20.842;2023-06-22T11:59:41;33.40;65.50
43842;DHT22;29495;49.970;20.842;2023-06-22T12:02:07;33.50;67.50
43842;DHT22;29495;49.970;20.842;2023-06-22T12:04:34;33.20;63.60
43842;DHT22;29495;49.970;20.842;2023-06-22T12:07:00;33.10;65.20
43842;DHT22;29495;49.970;20.842;2023-06-22T12:09:26;33.00;66.00
43842;DHT22;29495;49.970;20.842;2023-06-22T12:11:52;32.60;64.10
43842;DHT22;29495;49.970;20.842;2023-06-22T12:14:17;32.70;63.30
43842;DHT22;29495;49.970;20.842;2023-06-22T12:16:43;32.80;63.40
43842;DHT22;29495;49.970;20.842;2023-06-22T12:19:10;33.00;61.80
43842;DHT22;29495;49.970;20.842;2023-06-22T12:21:37;32.50;60.70
43842;DHT22;29495;49.970;20.842;2023-06-22T12:24:02;32.60;61.20
43842;DHT22;29495;49.970;20.842;2023-06-22T12:26:28;32.20;61.80
43842;DHT22;29495;49.970;20.842;2023-06-22T12:28:57;32.70;64.40
43842;DHT22;29495;49.970;20.842;2023-06-22T12:31:22;32.90;63.10
43842;DHT22;29495;49.970;20.842;2023-06-22T12:33:48;32.50;62.40
43842;DHT22;29495;49.970;20.842;2023-06-22T12:36:14;32.90;63.40
43842;DHT22;29495;49.970;20.842;2023-06-22T12:38:42;33.10;64.30
43842;DHT22;29495;49.970;20.842;2023-06-22T12:41:07;32.00;62.60
43842;DHT22;29495;49.970;20.842;2023-06-22T12:43:33;32.20;64.70
43842;DHT22;29495;49.970;20.842;2023-06-22T12:45:59;32.20;64.60
43842;DHT22;29495;49.970;20.842;2023-06-22T12:48:25;31.90;67.50
43842;DHT22;29495;49.970;20.842;2023-06-22T12:56:39;32.40;70.10
43842;DHT22;29495;49.970;20.842;2023-06-22T12:59:05;32.70;70.50
43842;DHT22;29495;49.970;20.842;2023-06-22T13:01:31;32.60;67.60
43842;DHT22;29495;49.970;20.842;2023-06-22T13:03:57;32.80;71.90
43842;DHT22;29495;49.970;20.842;2023-06-22T13:06:23;32.90;69.60
43842;DHT22;29495;49.970;20.842;2023-06-22T13:08:49;32.70;67.00
43842;DHT22;29495;49.970;20.842;2023-06-22T13:11:15;32.70;65.80
43842;DHT22;29495;49.970;20.842;2023-06-22T13:13:41;32.70;66.40
43842;DHT22;29495;49.970;20.842;2023-06-22T13:16:07;32.70;66.60
43842;DHT22;29495;49.970;20.842;2023-06-22T13:18:33;32.80;69.00
43842;DHT22;29495;49.970;20.842;2023-06-22T13:21:01;32.80;67.00
43842;DHT22;29495;49.970;20.842;2023-06-22T13:23:27;32.70;65.30
43842;DHT22;29495;49.970;20.842;2023-06-22T13:25:53;32.60;65.60
43842;DHT22;29495;49.970;20.842;2023-06-22T13:28:19;32.80;67.00
43842;DHT22;29495;49.970;20.842;2023-06-22T13:30:46;32.60;66.60
43842;DHT22;29495;49.970;20.842;2023-06-22T13:33:15;32.60;66.60
43842;DHT22;29495;49.970;20.842;2023-06-22T13:35:41;32.50;65.80
43842;DHT22;29495;49.970;20.842;2023-06-22T13:38:08;32.30;65.00
43842;DHT22;29495;49.970;20.842;2023-06-22T13:40:35;32.60;65.60
43842;DHT22;29495;49.970;20.842;2023-06-22T13:43:00;32.40;63.50
43842;DHT22;29495;49.970;20.842;2023-06-22T13:45:26;32.60;63.40
43842;DHT22;29495;49.970;20.842;2023-06-22T13:47:52;32.30;63.10
43842;DHT22;29495;49.970;20.842;2023-06-22T13:50:18;31.80;62.10
43842;DHT22;29495;49.970;20.842;2023-06-22T13:52:44;32.10;64.00
43842;DHT22;29495;49.970;20.842;2023-06-22T13:55:10;32.30;66.60
43842;DHT22;29495;49.970;20.842;2023-06-22T13:57:36;31.70;65.60
43842;DHT22;29495;49.970;20.842;2023-06-22T14:00:03;31.40;65.80
43842;DHT22;29495;49.970;20.842;2023-06-22T14:02:37;31.80;66.50
43842;DHT22;29495;49.970;20.842;2023-06-22T14:05:03;32.10;66.00
43842;DHT22;29495;49.970;20.842;2023-06-22T14:07:29;31.80;67.60
43842;DHT22;29495;49.970;20.842;2023-06-22T14:09:54;31.80;67.50
43842;DHT22;29495;49.970;20.842;2023-06-22T14:12:20;32.10;67.00
43842;DHT22;29495;49.970;20.842;2023-06-22T14:14:46;32.30;66.60
43842;DHT22;29495;49.970;20.842;2023-06-22T14:17:12;32.20;63.50
43842;DHT22;29495;49.970;20.842;2023-06-22T14:19:37;32.50;64.10
43842;DHT22;29495;49.970;20.842;2023-06-22T14:22:03;32.30;63.90
43842;DHT22;29495;49.970;20.842;2023-06-22T14:24:29;32.30;64.30
43842;DHT22;29495;49.970;20.842;2023-06-22T14:26:55;32.00;63.30
43842;DHT22;29495;49.970;20.842;2023-06-22T14:29:21;32.20;63.70
43842;DHT22;29495;49.970;20.842;2023-06-22T14:31:47;32.20;64.20
43842;DHT22;29495;49.970;20.842;2023-06-22T14:34:13;32.30;63.50
43842;DHT22;29495;49.970;20.842;2023-06-22T14:36:39;32.10;62.90
43842;DHT22;29495;49.970;20.842;2023-06-22T14:45:05;31.80;61.40
43842;DHT22;29495;49.970;20.842;2023-06-22T14:47:31;32.10;61.20
43842;DHT22;29495;49.970;20.842;2023-06-22T14:49:57;32.30;62.70
43842;DHT22;29495;49.970;20.842;2023-06-22T14:52:23;32.20;60.50
43842;DHT22;29495;49.970;20.842;2023-06-22T14:54:48;32.10;60.60
43842;DHT22;29495;49.970;20.842;2023-06-22T14:57:16;32.00;59.90
43842;DHT22;29495;49.970;20.842;2023-06-22T14:59:46;31.90;59.80
43842;DHT22;29495;49.970;20.842;2023-06-22T15:02:12;32.10;60.50
43842;DHT22;29495;49.970;20.842;2023-06-22T15:04:37;32.10;61.40
43842;DHT22;29495;49.970;20.842;2023-06-22T15:07:03;31.80;60.50
43842;DHT22;29495;49.970;20.842;2023-06-22T15:09:29;31.70;59.70
43842;DHT22;29495;49.970;20.842;2023-06-22T15:11:55;31.90;61.20
43842;DHT22;29495;49.970;20.842;2023-06-22T15:14:20;32.10;59.80
43842;DHT22;29495;49.970;20.842;2023-06-22T15:16:46;32.30;59.00
43842;DHT22;29495;49.970;20.842;2023-06-22T15:19:12;32.40;58.80
43842;DHT22;29495;49.970;20.842;2023-06-22T15:21:38;32.50;62.00
43842;DHT22;29495;49.970;20.842;2023-06-22T15:24:04;32.50;59.50
43842;DHT22;29495;49.970;20.842;2023-06-22T15:26:30;32.10;59.00
43842;DHT22;29495;49.970;20.842;2023-06-22T15:28:55;32.10;59.20
43842;DHT22;29495;49.970;20.842;2023-06-22T15:31:21;32.10;58.10
43842;DHT22;29495;49.970;20.842;2023-06-22T15:33:47;32.30;60.10
43842;DHT22;29495;49.970;20.842;2023-06-22T15:36:13;32.20;59.20
43842;DHT22;29495;49.970;20.842;2023-06-22T15:38:39;32.10;57.80
43842;DHT22;29495;49.970;20.842;2023-06-22T15:41:05;32.20;58.40
43842;DHT22;29495;49.970;20.842;2023-06-22T15:43:30;32.30;58.00
43842;DHT22;29495;49.970;20.842;2023-06-22T15:45:56;32.10;58.30
43842;DHT22;29495;49.970;20.842;2023-06-22T15:48:22;32.10;57.70
43842;DHT22;29495;49.970;20.842;2023-06-22T15:50:48;32.30;58.00
43842;DHT22;29495;49.970;20.842;2023-06-22T15:53:13;32.30;59.80
43842;DHT22;29495;49.970;20.842;2023-06-22T15:55:39;32.20;58.00